Suomigracht — PHBT — position and weather

sailwx.info

Track history (hours):
 
Tides and Currents Weather Stations Pressure Air Temp Water Temp Dewpoint Dewpoint Depression Visibility Wind Speed Wind Dir Waves Ship Positions

Suomigracht

Last reported at 2017-Jun-29 00:30 UTC. Time now 2017-Jun-29 00:52 UTC.
Position N 61°08' E 021°26'.

Length 173 m; beam 26 m.

Type: Cargo ship. MMSI: 246100000.

Date/timePositionNaut miles runAvg speedWind from/ knotsBaromVisibWave heightAir tempDewpointWater temp
2017-Jun-29 00:30N 61°08' E 021°26'0 0.0
2017-Jun-28 23:56N 61°08' E 021°26'0 0.0
2017-Jun-28 23:29N 61°08' E 021°26'0 0.0
2017-Jun-28 22:59N 61°08' E 021°26'0 0.0
2017-Jun-28 22:29N 61°08' E 021°26'0 0.0
2017-Jun-28 21:59N 61°08' E 021°26'0 0.0
2017-Jun-28 21:29N 61°08' E 021°26'0 0.0
2017-Jun-28 20:59N 61°08' E 021°26'0 0.0
2017-Jun-28 20:29N 61°08' E 021°26'0 0.0
2017-Jun-28 19:59N 61°08' E 021°26'0 0.0
2017-Jun-28 19:29N 61°08' E 021°26'0 0.0
2017-Jun-28 19:00N 61°08' E 021°26'0 0.0
2017-Jun-28 18:28N 61°08' E 021°26'0 0.0
2017-Jun-28 17:59N 61°08' E 021°26'0 0.0
2017-Jun-28 17:29N 61°08' E 021°26'0 0.0
2017-Jun-28 16:59N 61°08' E 021°26'0 0.0
2017-Jun-28 16:29N 61°08' E 021°26'0 0.0
2017-Jun-28 15:59N 61°08' E 021°26'0 0.0
2017-Jun-28 15:29N 61°08' E 021°26'0 0.0
2017-Jun-28 14:59N 61°08' E 021°26'0 0.0
2017-Jun-28 14:29N 61°08' E 021°26'0 0.0
2017-Jun-28 13:26N 61°08' E 021°26'0 0.0
2017-Jun-28 12:56N 61°08' E 021°26'0 0.0
2017-Jun-28 12:29N 61°08' E 021°26'0 0.0
2017-Jun-28 11:59N 61°08' E 021°26'0 0.0
2017-Jun-28 11:29N 61°08' E 021°26'0 0.0
2017-Jun-28 10:56N 61°08' E 021°26'0 0.0
2017-Jun-28 10:29N 61°08' E 021°26'0 0.0
2017-Jun-28 09:59N 61°08' E 021°26'0 0.0
2017-Jun-28 09:29N 61°08' E 021°26'0 0.0
2017-Jun-28 08:59N 61°08' E 021°26'0 0.0
2017-Jun-28 08:29N 61°08' E 021°26'0 0.0
2017-Jun-28 07:59N 61°08' E 021°26'0 0.0
2017-Jun-28 07:29N 61°08' E 021°26'0 0.0
2017-Jun-28 06:59N 61°08' E 021°26'0 0.0
2017-Jun-28 06:29N 61°08' E 021°26'0 0.0
2017-Jun-28 05:59N 61°08' E 021°26'0 0.0
2017-Jun-28 05:29N 61°08' E 021°26'0 0.0
2017-Jun-28 04:59N 61°08' E 021°26'0 0.0
2017-Jun-28 04:29N 61°08' E 021°26'0 0.0
2017-Jun-28 03:59N 61°08' E 021°26'0 0.0
2017-Jun-28 03:29N 61°08' E 021°26'0 0.0
2017-Jun-28 02:59N 61°08' E 021°26'0 0.0
2017-Jun-28 02:29N 61°08' E 021°26'0 0.0
2017-Jun-28 01:59N 61°08' E 021°26'0 0.0
2017-Jun-28 01:29N 61°08' E 021°26'0 0.0
2017-Jun-28 00:59N 61°08' E 021°26'0 0.0
2017-Jun-28 00:29N 61°08' E 021°26'0 0.0
2017-Jun-27 23:59N 61°08' E 021°26'0 0.0
2017-Jun-27 23:29N 61°08' E 021°26'0 0.0
2017-Jun-27 22:59N 61°08' E 021°26'0 0.4
2017-Jun-27 22:30N 61°08' E 021°26'3 5.5
2017-Jun-27 22:00N 61°06' E 021°21'510.7
2017-Jun-27 21:30N 61°08' E 021°10'2 3.7
2017-Jun-27 21:01N 61°09' E 021°07'2 3.2
2017-Jun-27 20:29N 61°11' E 021°07'0 0.1
2017-Jun-27 20:00N 61°11' E 021°07'0 0.1
2017-Jun-27 19:29N 61°11' E 021°07'0 0.1
2017-Jun-27 18:58N 61°11' E 021°07'0 0.1
2017-Jun-27 18:28N 61°11' E 021°07'0 0.2
2017-Jun-27 17:58N 61°11' E 021°07'2 4.3
2017-Jun-27 17:31N 61°12' E 021°04'815.9
2017-Jun-27 17:01N 61°19' E 020°54'918.4
2017-Jun-27 16:31N 61°27' E 020°45'918.3
2017-Jun-27 16:00N 61°35' E 020°37'918.0
2017-Jun-27 15:31N 61°43' E 020°29'918.2
2017-Jun-27 15:00N 61°51' E 020°21'1818.1
2017-Jun-27 14:00N 62°08' E 020°04'918.1
2017-Jun-27 13:31N 62°16' E 019°56'918.1
2017-Jun-27 13:00N 62°24' E 019°47'918.1
2017-Jun-27 12:30N 62°32' E 019°39'918.2
2017-Jun-27 12:00N 62°40' E 019°30'40 1.3
2017-Jun-26 05:30N 63°19' E 019°09'0 0.0
2017-Jun-26 05:00N 63°19' E 019°09'0 0.0
2017-Jun-25 22:36N 63°19' E 019°09'0 0.0
2017-Jun-25 19:02N 63°19' E 019°09'0 2.1
2017-Jun-25 19:00N 63°19' E 019°09'2 4.7
2017-Jun-25 18:30N 63°18' E 019°14'2 3.0
2017-Jun-25 17:50N 63°20' E 019°17'0 0.1
2017-Jun-25 17:29N 63°20' E 019°17'0 0.1
2017-Jun-25 16:59N 63°20' E 019°17'0 0.0
2017-Jun-25 16:29N 63°20' E 019°17'0 0.0
2017-Jun-25 15:59N 63°20' E 019°17'0 0.0
2017-Jun-25 15:29N 63°20' E 019°17'0 0.0
2017-Jun-25 14:50N 63°20' E 019°17'0 0.1
2017-Jun-25 14:29N 63°20' E 019°17'0 0.0
2017-Jun-25 13:05N 63°20' E 019°17'0 0.2
2017-Jun-25 12:59N 63°20' E 019°17'0 0.0
2017-Jun-25 12:29N 63°20' E 019°17'4 0.7
2017-Jun-25 06:05N 63°15' E 019°16'1115.5
2017-Jun-25 05:22N 63°05' E 019°08'715.7
2017-Jun-25 04:56N 62°59' E 019°03'911.4
2017-Jun-25 04:10N 62°50' E 019°00'4 9.7
2017-Jun-25 03:45N 62°46' E 019°00'3 8.1
2017-Jun-25 03:19N 62°42' E 019°00'7711.0
2017-Jun-24 20:18N 61°25' E 019°02'311.4
2017-Jun-24 20:00N 61°22' E 019°02'3211.6
2017-Jun-24 17:18N 60°50' E 019°03'311.7
2017-Jun-24 17:00N 60°47' E 019°03'611.6
2017-Jun-24 16:30N 60°41' E 019°03'612.1
2017-Jun-24 16:00N 60°35' E 019°03'612.3
2017-Jun-24 15:30N 60°29' E 019°03'612.4
2017-Jun-24 15:00N 60°23' E 019°01'1212.2
2017-Jun-24 14:00N 60°11' E 019°07'612.8
2017-Jun-24 13:30N 60°06' E 019°15'612.5
2017-Jun-24 13:00N 60°01' E 019°23'612.4
2017-Jun-24 12:30N 59°56' E 019°31'612.3
2017-Jun-24 12:00N 59°52' E 019°39'612.3
2017-Jun-24 11:30N 59°47' E 019°47'612.2
2017-Jun-24 11:00N 59°43' E 019°56'612.2
2017-Jun-24 10:30N 59°38' E 020°04'611.6
2017-Jun-24 10:00N 59°33' E 020°10'612.5
2017-Jun-24 09:30N 59°27' E 020°07'612.7
2017-Jun-24 09:00N 59°22' E 020°01'612.7
2017-Jun-24 08:30N 59°16' E 019°54'613.0
2017-Jun-24 08:00N 59°11' E 019°48'16013.9
2017-Jun-23 20:33N 56°51' E 017°21'113.7
2017-Jun-23 20:29N 56°50' E 017°21'713.7
2017-Jun-23 19:57N 56°43' E 017°16'613.5
2017-Jun-23 19:30N 56°38' E 017°12'713.4
2017-Jun-23 19:00N 56°32' E 017°08'713.4
2017-Jun-23 18:30N 56°25' E 017°03'713.3
2017-Jun-23 18:00N 56°19' E 016°58'713.3
2017-Jun-23 17:30N 56°13' E 016°54'713.7
2017-Jun-23 17:00N 56°07' E 016°50'612.5
2017-Jun-23 16:30N 56°02' E 016°42'713.1
2017-Jun-23 16:00N 55°59' E 016°32'612.9
2017-Jun-23 15:30N 55°56' E 016°22'612.9
2017-Jun-23 15:00N 55°53' E 016°12'1313.0
2017-Jun-23 14:00N 55°46' E 015°52'613.0
2017-Jun-23 13:30N 55°43' E 015°42'713.1
2017-Jun-23 13:00N 55°40' E 015°31'713.3
2017-Jun-23 12:30N 55°37' E 015°21'713.0
2017-Jun-23 12:00N 55°34' E 015°11'613.0
2017-Jun-23 11:30N 55°30' E 015°01'612.9
2017-Jun-23 11:00N 55°27' E 014°51'612.7
2017-Jun-23 10:30N 55°24' E 014°41'612.6
2017-Jun-23 10:00N 55°20' E 014°34'612.9
2017-Jun-23 09:30N 55°15' E 014°27'612.8
2017-Jun-23 09:00N 55°10' E 014°20'613.0
2017-Jun-23 08:30N 55°05' E 014°13'612.4
2017-Jun-23 08:00N 55°01' E 014°04'713.0
2017-Jun-23 07:28N 54°58' E 013°53'613.1
2017-Jun-23 07:00N 54°56' E 013°43'2013.6
2017-Jun-23 05:32N 54°50' E 013°09'015.9
2017-Jun-23 05:30N 54°50' E 013°09'815.9
2017-Jun-23 05:00N 54°48' E 012°55'2715.1
2017-Jun-23 03:13N 54°33' E 012°17'315.5
2017-Jun-23 03:00N 54°29' E 012°16'2214.2
2017-Jun-23 01:27N 54°27' E 011°38'716.3
2017-Jun-23 01:00N 54°31' E 011°26'815.7
2017-Jun-23 00:30N 54°34' E 011°14'815.3
2017-Jun-23 00:00N 54°38' E 011°03'815.2
2017-Jun-22 23:30N 54°42' E 010°52'714.5
2017-Jun-22 23:00N 54°50' E 010°51'713.1
2017-Jun-22 22:31N 54°56' E 010°55'713.2
2017-Jun-22 22:00N 55°01' E 011°01'914.6
2017-Jun-22 21:23N 55°10' E 011°03'9914.9
2017-Jun-22 14:45N 56°45' E 011°51'417.0
2017-Jun-22 14:30N 56°49' E 011°49'1716.8
2017-Jun-22 13:30N 57°05' E 011°39'816.9
2017-Jun-22 13:00N 57°13' E 011°34'816.9
2017-Jun-22 12:30N 57°21' E 011°29'816.9
2017-Jun-22 12:00N 57°29' E 011°22'816.8
2017-Jun-22 11:30N 57°34' E 011°11'917.3
2017-Jun-22 10:59N 57°41' E 010°58'817.2
2017-Jun-22 10:29N 57°46' E 010°47'816.3
2017-Jun-22 10:00N 57°48' E 010°32'1016.2
2017-Jun-22 09:22N 57°48' E 010°13'716.1
2017-Jun-22 08:58N 57°48' E 010°01'816.1
2017-Jun-22 08:28N 57°45' E 009°46'816.0
2017-Jun-22 07:59N 57°43' E 009°33'816.2
2017-Jun-22 07:29N 57°40' E 009°18'13615.9
2017-Jun-21 22:57N 55°51' E 006°50'916.0
2017-Jun-21 22:23N 55°43' E 006°43'716.0
2017-Jun-21 21:58N 55°37' E 006°38'715.7
2017-Jun-21 21:30N 55°31' E 006°31'3015.8
2017-Jun-21 19:35N 55°05' E 006°04'116.0
2017-Jun-21 19:30N 55°04' E 006°03'10916.1
2017-Jun-21 12:43N 53°25' E 004°42'415.9
2017-Jun-21 12:29N 53°22' E 004°40'816.0
2017-Jun-21 12:00N 53°15' E 004°35'815.5
2017-Jun-21 11:30N 53°08' E 004°28'815.7
2017-Jun-21 11:00N 53°01' E 004°22'815.5
2017-Jun-21 10:30N 52°54' E 004°17'815.1
2017-Jun-21 10:00N 52°47' E 004°10'715.0
2017-Jun-21 09:30N 52°42' E 004°03'714.9
2017-Jun-21 09:00N 52°37' E 003°54'815.0
2017-Jun-21 08:30N 52°31' E 003°45'714.3
2017-Jun-21 08:00N 52°26' E 003°37'714.4
2017-Jun-21 07:30N 52°21' E 003°29'714.3
2017-Jun-21 07:00N 52°16' E 003°20'714.0
2017-Jun-21 06:30N 52°11' E 003°12'713.9
2017-Jun-21 06:00N 52°06' E 003°04'713.7
2017-Jun-21 05:30N 52°01' E 002°57'2214.5
2017-Jun-21 03:59N 51°44' E 002°34'714.7
2017-Jun-21 03:30N 51°38' E 002°27'714.4
2017-Jun-21 03:00N 51°33' E 002°20'714.6
2017-Jun-21 02:31N 51°27' E 002°12'714.2
2017-Jun-21 02:01N 51°21' E 002°07'714.4
2017-Jun-21 01:31N 51°14' E 002°03'815.2
2017-Jun-21 01:00N 51°10' E 001°53'815.5
2017-Jun-21 00:31N 51°06' E 001°43'816.0
2017-Jun-21 00:01N 51°00' E 001°34'815.8
2017-Jun-20 23:30N 50°54' E 001°26'816.2
2017-Jun-20 23:01N 50°46' E 001°22'815.2
2017-Jun-20 22:31N 50°40' E 001°16'815.4
2017-Jun-20 22:01N 50°35' E 001°07'915.4
2017-Jun-20 21:27N 50°29' E 000°57'715.1
2017-Jun-20 20:59N 50°27' E 000°46'1015.4
2017-Jun-20 20:19N 50°24' E 000°31'414.2
2017-Jun-20 20:01N 50°23' E 000°24'815.4
2017-Jun-20 19:31N 50°21' E 000°12'815.7
2017-Jun-20 19:01N 50°19' E 000°00'816.1
2017-Jun-20 18:30N 50°17' W 000°12'816.5
2017-Jun-20 18:00N 50°14' W 000°24'816.9
2017-Jun-20 17:30N 50°12' W 000°37'917.3
2017-Jun-20 17:01N 50°10' W 000°50'917.5
2017-Jun-20 16:31N 50°08' W 001°03'917.6
2017-Jun-20 16:01N 50°06' W 001°16'917.6
2017-Jun-20 15:30N 50°03' W 001°30'917.6
2017-Jun-20 15:01N 50°01' W 001°43'917.1
2017-Jun-20 14:31N 49°59' W 001°56'1616.2
2017-Jun-20 13:31N 49°54' W 002°20'815.2
2017-Jun-20 13:00N 49°52' W 002°31'714.8
2017-Jun-20 12:30N 49°50' W 002°42'714.5
2017-Jun-20 12:01N 49°48' W 002°53'1014.6
2017-Jun-20 11:18N 49°45' W 003°08'714.5
2017-Jun-20 10:51N 49°44' W 003°18'514.4
2017-Jun-20 10:28N 49°42' W 003°26'714.3
2017-Jun-20 10:01N 49°40' W 003°36'814.3
2017-Jun-20 09:26N 49°37' W 003°48'614.2
2017-Jun-20 09:00N 49°35' W 003°57'713.8
2017-Jun-20 08:30N 49°35' W 004°08'814.1
2017-Jun-20 07:58N 49°33' W 004°19'1014.3
2017-Jun-20 07:14N 49°30' W 004°35'514.3
2017-Jun-20 06:54N 49°29' W 004°42'1114.4
2017-Jun-20 06:09N 49°26' W 004°58'414.5
2017-Jun-20 05:54N 49°25' W 005°03'4015.5
2017-Jun-20 03:17N 49°14' W 006°03'415.3
2017-Jun-20 03:00N 49°13' W 006°09'915.5
2017-Jun-20 02:25N 49°11' W 006°23'715.7
2017-Jun-20 02:00N 49°09' W 006°32'  
Track history (hours):
 
Tides and Currents Weather Stations Pressure Air Temp Water Temp Dewpoint Dewpoint Depression Visibility Wind Speed Wind Dir Waves Ship Positions

Suomigracht

Last reported at 2017-Jun-29 00:30 UTC. Time now 2017-Jun-29 00:52 UTC.
Position N 61°08' E 021°26'.

Length 173 m; beam 26 m.

Type: Cargo ship. MMSI: 246100000.

Date/timePositionNaut miles runAvg speedWind from/ knotsBaromVisibWave heightAir tempDewpointWater temp
2017-Jun-29 00:30N 61°08' E 021°26'0 0.0
2017-Jun-28 23:56N 61°08' E 021°26'0 0.0
2017-Jun-28 23:29N 61°08' E 021°26'0 0.0
2017-Jun-28 22:59N 61°08' E 021°26'0 0.0
2017-Jun-28 22:29N 61°08' E 021°26'0 0.0
2017-Jun-28 21:59N 61°08' E 021°26'0 0.0
2017-Jun-28 21:29N 61°08' E 021°26'0 0.0
2017-Jun-28 20:59N 61°08' E 021°26'0 0.0
2017-Jun-28 20:29N 61°08' E 021°26'0 0.0
2017-Jun-28 19:59N 61°08' E 021°26'0 0.0
2017-Jun-28 19:29N 61°08' E 021°26'0 0.0
2017-Jun-28 19:00N 61°08' E 021°26'0 0.0
2017-Jun-28 18:28N 61°08' E 021°26'0 0.0
2017-Jun-28 17:59N 61°08' E 021°26'0 0.0
2017-Jun-28 17:29N 61°08' E 021°26'0 0.0
2017-Jun-28 16:59N 61°08' E 021°26'0 0.0
2017-Jun-28 16:29N 61°08' E 021°26'0 0.0
2017-Jun-28 15:59N 61°08' E 021°26'0 0.0
2017-Jun-28 15:29N 61°08' E 021°26'0 0.0
2017-Jun-28 14:59N 61°08' E 021°26'0 0.0
2017-Jun-28 14:29N 61°08' E 021°26'0 0.0
2017-Jun-28 13:26N 61°08' E 021°26'0 0.0
2017-Jun-28 12:56N 61°08' E 021°26'0 0.0
2017-Jun-28 12:29N 61°08' E 021°26'0 0.0
2017-Jun-28 11:59N 61°08' E 021°26'0 0.0
2017-Jun-28 11:29N 61°08' E 021°26'0 0.0
2017-Jun-28 10:56N 61°08' E 021°26'0 0.0
2017-Jun-28 10:29N 61°08' E 021°26'0 0.0
2017-Jun-28 09:59N 61°08' E 021°26'0 0.0
2017-Jun-28 09:29N 61°08' E 021°26'0 0.0
2017-Jun-28 08:59N 61°08' E 021°26'0 0.0
2017-Jun-28 08:29N 61°08' E 021°26'0 0.0
2017-Jun-28 07:59N 61°08' E 021°26'0 0.0
2017-Jun-28 07:29N 61°08' E 021°26'0 0.0
2017-Jun-28 06:59N 61°08' E 021°26'0 0.0
2017-Jun-28 06:29N 61°08' E 021°26'0 0.0
2017-Jun-28 05:59N 61°08' E 021°26'0 0.0
2017-Jun-28 05:29N 61°08' E 021°26'0 0.0
2017-Jun-28 04:59N 61°08' E 021°26'0 0.0
2017-Jun-28 04:29N 61°08' E 021°26'0 0.0
2017-Jun-28 03:59N 61°08' E 021°26'0 0.0
2017-Jun-28 03:29N 61°08' E 021°26'0 0.0
2017-Jun-28 02:59N 61°08' E 021°26'0 0.0
2017-Jun-28 02:29N 61°08' E 021°26'0 0.0
2017-Jun-28 01:59N 61°08' E 021°26'0 0.0
2017-Jun-28 01:29N 61°08' E 021°26'0 0.0
2017-Jun-28 00:59N 61°08' E 021°26'0 0.0
2017-Jun-28 00:29N 61°08' E 021°26'0 0.0
2017-Jun-27 23:59N 61°08' E 021°26'0 0.0
2017-Jun-27 23:29N 61°08' E 021°26'0 0.0
2017-Jun-27 22:59N 61°08' E 021°26'0 0.4
2017-Jun-27 22:30N 61°08' E 021°26'3 5.5
2017-Jun-27 22:00N 61°06' E 021°21'510.7
2017-Jun-27 21:30N 61°08' E 021°10'2 3.7
2017-Jun-27 21:01N 61°09' E 021°07'2 3.2
2017-Jun-27 20:29N 61°11' E 021°07'0 0.1
2017-Jun-27 20:00N 61°11' E 021°07'0 0.1
2017-Jun-27 19:29N 61°11' E 021°07'0 0.1
2017-Jun-27 18:58N 61°11' E 021°07'0 0.1
2017-Jun-27 18:28N 61°11' E 021°07'0 0.2
2017-Jun-27 17:58N 61°11' E 021°07'2 4.3
2017-Jun-27 17:31N 61°12' E 021°04'815.9
2017-Jun-27 17:01N 61°19' E 020°54'918.4
2017-Jun-27 16:31N 61°27' E 020°45'918.3
2017-Jun-27 16:00N 61°35' E 020°37'918.0
2017-Jun-27 15:31N 61°43' E 020°29'918.2
2017-Jun-27 15:00N 61°51' E 020°21'1818.1
2017-Jun-27 14:00N 62°08' E 020°04'918.1
2017-Jun-27 13:31N 62°16' E 019°56'918.1
2017-Jun-27 13:00N 62°24' E 019°47'918.1
2017-Jun-27 12:30N 62°32' E 019°39'918.2
2017-Jun-27 12:00N 62°40' E 019°30'40 1.3
2017-Jun-26 05:30N 63°19' E 019°09'0 0.0
2017-Jun-26 05:00N 63°19' E 019°09'0 0.0
2017-Jun-25 22:36N 63°19' E 019°09'0 0.0
2017-Jun-25 19:02N 63°19' E 019°09'0 2.1
2017-Jun-25 19:00N 63°19' E 019°09'2 4.7
2017-Jun-25 18:30N 63°18' E 019°14'2 3.0
2017-Jun-25 17:50N 63°20' E 019°17'0 0.1
2017-Jun-25 17:29N 63°20' E 019°17'0 0.1
2017-Jun-25 16:59N 63°20' E 019°17'0 0.0
2017-Jun-25 16:29N 63°20' E 019°17'0 0.0
2017-Jun-25 15:59N 63°20' E 019°17'0 0.0
2017-Jun-25 15:29N 63°20' E 019°17'0 0.0
2017-Jun-25 14:50N 63°20' E 019°17'0 0.1
2017-Jun-25 14:29N 63°20' E 019°17'0 0.0
2017-Jun-25 13:05N 63°20' E 019°17'0 0.2
2017-Jun-25 12:59N 63°20' E 019°17'0 0.0
2017-Jun-25 12:29N 63°20' E 019°17'4 0.7
2017-Jun-25 06:05N 63°15' E 019°16'1115.5
2017-Jun-25 05:22N 63°05' E 019°08'715.7
2017-Jun-25 04:56N 62°59' E 019°03'911.4
2017-Jun-25 04:10N 62°50' E 019°00'4 9.7
2017-Jun-25 03:45N 62°46' E 019°00'3 8.1
2017-Jun-25 03:19N 62°42' E 019°00'7711.0
2017-Jun-24 20:18N 61°25' E 019°02'311.4
2017-Jun-24 20:00N 61°22' E 019°02'3211.6
2017-Jun-24 17:18N 60°50' E 019°03'311.7
2017-Jun-24 17:00N 60°47' E 019°03'611.6
2017-Jun-24 16:30N 60°41' E 019°03'612.1
2017-Jun-24 16:00N 60°35' E 019°03'612.3
2017-Jun-24 15:30N 60°29' E 019°03'612.4
2017-Jun-24 15:00N 60°23' E 019°01'1212.2
2017-Jun-24 14:00N 60°11' E 019°07'612.8
2017-Jun-24 13:30N 60°06' E 019°15'612.5
2017-Jun-24 13:00N 60°01' E 019°23'612.4
2017-Jun-24 12:30N 59°56' E 019°31'612.3
2017-Jun-24 12:00N 59°52' E 019°39'612.3
2017-Jun-24 11:30N 59°47' E 019°47'612.2
2017-Jun-24 11:00N 59°43' E 019°56'612.2
2017-Jun-24 10:30N 59°38' E 020°04'611.6
2017-Jun-24 10:00N 59°33' E 020°10'612.5
2017-Jun-24 09:30N 59°27' E 020°07'612.7
2017-Jun-24 09:00N 59°22' E 020°01'612.7
2017-Jun-24 08:30N 59°16' E 019°54'613.0
2017-Jun-24 08:00N 59°11' E 019°48'16013.9
2017-Jun-23 20:33N 56°51' E 017°21'113.7
2017-Jun-23 20:29N 56°50' E 017°21'713.7
2017-Jun-23 19:57N 56°43' E 017°16'613.5
2017-Jun-23 19:30N 56°38' E 017°12'713.4
2017-Jun-23 19:00N 56°32' E 017°08'713.4
2017-Jun-23 18:30N 56°25' E 017°03'713.3
2017-Jun-23 18:00N 56°19' E 016°58'713.3
2017-Jun-23 17:30N 56°13' E 016°54'713.7
2017-Jun-23 17:00N 56°07' E 016°50'612.5
2017-Jun-23 16:30N 56°02' E 016°42'713.1
2017-Jun-23 16:00N 55°59' E 016°32'612.9
2017-Jun-23 15:30N 55°56' E 016°22'612.9
2017-Jun-23 15:00N 55°53' E 016°12'1313.0
2017-Jun-23 14:00N 55°46' E 015°52'613.0
2017-Jun-23 13:30N 55°43' E 015°42'713.1
2017-Jun-23 13:00N 55°40' E 015°31'713.3
2017-Jun-23 12:30N 55°37' E 015°21'713.0
2017-Jun-23 12:00N 55°34' E 015°11'613.0
2017-Jun-23 11:30N 55°30' E 015°01'612.9
2017-Jun-23 11:00N 55°27' E 014°51'612.7
2017-Jun-23 10:30N 55°24' E 014°41'612.6
2017-Jun-23 10:00N 55°20' E 014°34'612.9
2017-Jun-23 09:30N 55°15' E 014°27'612.8
2017-Jun-23 09:00N 55°10' E 014°20'613.0
2017-Jun-23 08:30N 55°05' E 014°13'612.4
2017-Jun-23 08:00N 55°01' E 014°04'713.0
2017-Jun-23 07:28N 54°58' E 013°53'613.1
2017-Jun-23 07:00N 54°56' E 013°43'2013.6
2017-Jun-23 05:32N 54°50' E 013°09'015.9
2017-Jun-23 05:30N 54°50' E 013°09'815.9
2017-Jun-23 05:00N 54°48' E 012°55'2715.1
2017-Jun-23 03:13N 54°33' E 012°17'315.5
2017-Jun-23 03:00N 54°29' E 012°16'2214.2
2017-Jun-23 01:27N 54°27' E 011°38'716.3
2017-Jun-23 01:00N 54°31' E 011°26'815.7
2017-Jun-23 00:30N 54°34' E 011°14'815.3
2017-Jun-23 00:00N 54°38' E 011°03'815.2
2017-Jun-22 23:30N 54°42' E 010°52'714.5
2017-Jun-22 23:00N 54°50' E 010°51'713.1
2017-Jun-22 22:31N 54°56' E 010°55'713.2
2017-Jun-22 22:00N 55°01' E 011°01'914.6
2017-Jun-22 21:23N 55°10' E 011°03'9914.9
2017-Jun-22 14:45N 56°45' E 011°51'417.0
2017-Jun-22 14:30N 56°49' E 011°49'1716.8
2017-Jun-22 13:30N 57°05' E 011°39'816.9
2017-Jun-22 13:00N 57°13' E 011°34'816.9
2017-Jun-22 12:30N 57°21' E 011°29'816.9
2017-Jun-22 12:00N 57°29' E 011°22'816.8
2017-Jun-22 11:30N 57°34' E 011°11'917.3
2017-Jun-22 10:59N 57°41' E 010°58'817.2
2017-Jun-22 10:29N 57°46' E 010°47'816.3
2017-Jun-22 10:00N 57°48' E 010°32'1016.2
2017-Jun-22 09:22N 57°48' E 010°13'716.1
2017-Jun-22 08:58N 57°48' E 010°01'816.1
2017-Jun-22 08:28N 57°45' E 009°46'816.0
2017-Jun-22 07:59N 57°43' E 009°33'816.2
2017-Jun-22 07:29N 57°40' E 009°18'13615.9
2017-Jun-21 22:57N 55°51' E 006°50'916.0
2017-Jun-21 22:23N 55°43' E 006°43'716.0
2017-Jun-21 21:58N 55°37' E 006°38'715.7
2017-Jun-21 21:30N 55°31' E 006°31'3015.8
2017-Jun-21 19:35N 55°05' E 006°04'116.0
2017-Jun-21 19:30N 55°04' E 006°03'10916.1
2017-Jun-21 12:43N 53°25' E 004°42'415.9
2017-Jun-21 12:29N 53°22' E 004°40'816.0
2017-Jun-21 12:00N 53°15' E 004°35'815.5
2017-Jun-21 11:30N 53°08' E 004°28'815.7
2017-Jun-21 11:00N 53°01' E 004°22'815.5
2017-Jun-21 10:30N 52°54' E 004°17'815.1
2017-Jun-21 10:00N 52°47' E 004°10'715.0
2017-Jun-21 09:30N 52°42' E 004°03'714.9
2017-Jun-21 09:00N 52°37' E 003°54'815.0
2017-Jun-21 08:30N 52°31' E 003°45'714.3
2017-Jun-21 08:00N 52°26' E 003°37'714.4
2017-Jun-21 07:30N 52°21' E 003°29'714.3
2017-Jun-21 07:00N 52°16' E 003°20'714.0
2017-Jun-21 06:30N 52°11' E 003°12'713.9
2017-Jun-21 06:00N 52°06' E 003°04'713.7
2017-Jun-21 05:30N 52°01' E 002°57'2214.5
2017-Jun-21 03:59N 51°44' E 002°34'714.7
2017-Jun-21 03:30N 51°38' E 002°27'714.4
2017-Jun-21 03:00N 51°33' E 002°20'714.6
2017-Jun-21 02:31N 51°27' E 002°12'714.2
2017-Jun-21 02:01N 51°21' E 002°07'714.4
2017-Jun-21 01:31N 51°14' E 002°03'815.2
2017-Jun-21 01:00N 51°10' E 001°53'815.5
2017-Jun-21 00:31N 51°06' E 001°43'816.0
2017-Jun-21 00:01N 51°00' E 001°34'815.8
2017-Jun-20 23:30N 50°54' E 001°26'816.2
2017-Jun-20 23:01N 50°46' E 001°22'815.2
2017-Jun-20 22:31N 50°40' E 001°16'815.4
2017-Jun-20 22:01N 50°35' E 001°07'915.4
2017-Jun-20 21:27N 50°29' E 000°57'715.1
2017-Jun-20 20:59N 50°27' E 000°46'1015.4
2017-Jun-20 20:19N 50°24' E 000°31'414.2
2017-Jun-20 20:01N 50°23' E 000°24'815.4
2017-Jun-20 19:31N 50°21' E 000°12'815.7
2017-Jun-20 19:01N 50°19' E 000°00'816.1
2017-Jun-20 18:30N 50°17' W 000°12'816.5
2017-Jun-20 18:00N 50°14' W 000°24'816.9
2017-Jun-20 17:30N 50°12' W 000°37'917.3
2017-Jun-20 17:01N 50°10' W 000°50'917.5
2017-Jun-20 16:31N 50°08' W 001°03'917.6
2017-Jun-20 16:01N 50°06' W 001°16'917.6
2017-Jun-20 15:30N 50°03' W 001°30'917.6
2017-Jun-20 15:01N 50°01' W 001°43'917.1
2017-Jun-20 14:31N 49°59' W 001°56'1616.2
2017-Jun-20 13:31N 49°54' W 002°20'815.2
2017-Jun-20 13:00N 49°52' W 002°31'714.8
2017-Jun-20 12:30N 49°50' W 002°42'714.5
2017-Jun-20 12:01N 49°48' W 002°53'1014.6
2017-Jun-20 11:18N 49°45' W 003°08'714.5
2017-Jun-20 10:51N 49°44' W 003°18'514.4
2017-Jun-20 10:28N 49°42' W 003°26'714.3
2017-Jun-20 10:01N 49°40' W 003°36'814.3
2017-Jun-20 09:26N 49°37' W 003°48'614.2
2017-Jun-20 09:00N 49°35' W 003°57'713.8
2017-Jun-20 08:30N 49°35' W 004°08'814.1
2017-Jun-20 07:58N 49°33' W 004°19'1014.3
2017-Jun-20 07:14N 49°30' W 004°35'514.3
2017-Jun-20 06:54N 49°29' W 004°42'1114.4
2017-Jun-20 06:09N 49°26' W 004°58'414.5
2017-Jun-20 05:54N 49°25' W 005°03'4015.5
2017-Jun-20 03:17N 49°14' W 006°03'415.3
2017-Jun-20 03:00N 49°13' W 006°09'915.5
2017-Jun-20 02:25N 49°11' W 006°23'715.7
2017-Jun-20 02:00N 49°09' W 006°32'  

Dump ship's entire track history